sensor_id;sensor_type;location;lat;lon;timestamp;pressure;altitude;pressure_sealevel;temperature;humidity
10510;BME280;5303;53.266;10.410;2023-10-08T00:02:05;101843.88;;;10.62;100.00
10510;BME280;5303;53.266;10.410;2023-10-08T00:04:32;101836.84;;;10.61;100.00
10510;BME280;5303;53.266;10.410;2023-10-08T00:07:03;101838.56;;;10.59;100.00
10510;BME280;5303;53.266;10.410;2023-10-08T00:09:29;101855.31;;;10.61;100.00
10510;BME280;5303;53.266;10.410;2023-10-08T00:12:00;101871.97;;;10.55;100.00
10510;BME280;5303;53.266;10.410;2023-10-08T00:14:26;101887.81;;;10.57;100.00
10510;BME280;5303;53.266;10.410;2023-10-08T00:16:53;101891.44;;;10.65;100.00
10510;BME280;5303;53.266;10.410;2023-10-08T00:19:18;101887.91;;;10.63;100.00
10510;BME280;5303;53.266;10.410;2023-10-08T00:21:43;101887.84;;;10.61;100.00
10510;BME280;5303;53.266;10.410;2023-10-08T00:24:10;101884.28;;;10.58;100.00
10510;BME280;5303;53.266;10.410;2023-10-08T00:26:37;101900.16;;;10.61;100.00
10510;BME280;5303;53.266;10.410;2023-10-08T00:29:06;101901.97;;;10.63;100.00
10510;BME280;5303;53.266;10.410;2023-10-08T00:31:45;101903.75;;;10.63;100.00
10510;BME280;5303;53.266;10.410;2023-10-08T00:34:14;101896.72;;;10.65;100.00
10510;BME280;5303;53.266;10.410;2023-10-08T00:36:41;101903.69;;;10.61;100.00
10510;BME280;5303;53.266;10.410;2023-10-08T00:39:07;101886.94;;;10.58;100.00
10510;BME280;5303;53.266;10.410;2023-10-08T00:41:40;101886.09;;;10.62;100.00
10510;BME280;5303;53.266;10.410;2023-10-08T00:44:08;101901.88;;;10.56;100.00
10510;BME280;5303;53.266;10.410;2023-10-08T00:46:33;101889.53;;;10.55;100.00
10510;BME280;5303;53.266;10.410;2023-10-08T00:49:13;101906.25;;;10.55;100.00
10510;BME280;5303;53.266;10.410;2023-10-08T00:52:03;101908.06;;;10.61;100.00
10510;BME280;5303;53.266;10.410;2023-10-08T00:54:49;101911.56;;;10.58;100.00
10510;BME280;5303;53.266;10.410;2023-10-08T00:57:30;101919.47;;;10.57;100.00
10510;BME280;5303;53.266;10.410;2023-10-08T00:59:56;101931.78;;;10.58;100.00
10510;BME280;5303;53.266;10.410;2023-10-08T01:02:32;101944.06;;;10.56;100.00
10510;BME280;5303;53.266;10.410;2023-10-08T01:05:12;101950.28;;;10.61;100.00
10510;BME280;5303;53.266;10.410;2023-10-08T01:07:40;101951.28;;;10.66;100.00
10510;BME280;5303;53.266;10.410;2023-10-08T01:10:10;101952.06;;;10.60;100.00
10510;BME280;5303;53.266;10.410;2023-10-08T01:12:36;101952.13;;;10.63;100.00
10510;BME280;5303;53.266;10.410;2023-10-08T01:15:10;101932.72;;;10.61;100.00
10510;BME280;5303;53.266;10.410;2023-10-08T01:17:49;101928.31;;;10.62;100.00
10510;BME280;5303;53.266;10.410;2023-10-08T01:20:29;101938.88;;;10.62;100.00
10510;BME280;5303;53.266;10.410;2023-10-08T01:23:15;101940.72;;;10.66;100.00
10510;BME280;5303;53.266;10.410;2023-10-08T01:25:46;101931.91;;;10.64;100.00
10510;BME280;5303;53.266;10.410;2023-10-08T01:28:23;101930.06;;;10.60;100.00
10510;BME280;5303;53.266;10.410;2023-10-08T01:30:52;101942.38;;;10.61;100.00
10510;BME280;5303;53.266;10.410;2023-10-08T01:33:19;101941.44;;;10.56;100.00
10510;BME280;5303;53.266;10.410;2023-10-08T01:35:46;101958.97;;;10.52;100.00
10510;BME280;5303;53.266;10.410;2023-10-08T01:38:14;101957.31;;;10.59;100.00
10510;BME280;5303;53.266;10.410;2023-10-08T01:40:41;101965.97;;;10.52;100.00
10510;BME280;5303;53.266;10.410;2023-10-08T01:43:06;101957.28;;;10.56;100.00
10510;BME280;5303;53.266;10.410;2023-10-08T01:45:35;101951.03;;;10.51;100.00
10510;BME280;5303;53.266;10.410;2023-10-08T01:48:01;101947.50;;;10.52;100.00
10510;BME280;5303;53.266;10.410;2023-10-08T01:50:26;101960.81;;;10.58;100.00
10510;BME280;5303;53.266;10.410;2023-10-08T01:52:54;101958.94;;;10.51;100.00
10510;BME280;5303;53.266;10.410;2023-10-08T01:55:20;101977.38;;;10.49;100.00
10510;BME280;5303;53.266;10.410;2023-10-08T01:57:48;101973.78;;;10.43;100.00
10510;BME280;5303;53.266;10.410;2023-10-08T02:00:13;101996.66;;;10.44;100.00
10510;BME280;5303;53.266;10.410;2023-10-08T02:02:47;102012.50;;;10.44;100.00
10510;BME280;5303;53.266;10.410;2023-10-08T02:05:15;102001.09;;;10.46;100.00
10510;BME280;5303;53.266;10.410;2023-10-08T02:07:41;101984.34;;;10.43;100.00
10510;BME280;5303;53.266;10.410;2023-10-08T02:10:09;101966.69;;;10.42;100.00
10510;BME280;5303;53.266;10.410;2023-10-08T02:12:37;101959.63;;;10.37;100.00
10510;BME280;5303;53.266;10.410;2023-10-08T02:15:02;101958.75;;;10.38;100.00
10510;BME280;5303;53.266;10.410;2023-10-08T02:17:28;101961.22;;;10.29;100.00
10510;BME280;5303;53.266;10.410;2023-10-08T02:19:53;101952.47;;;10.30;100.00
10510;BME280;5303;53.266;10.410;2023-10-08T02:22:18;101949.81;;;10.29;100.00
10510;BME280;5303;53.266;10.410;2023-10-08T02:24:44;101947.19;;;10.30;100.00
10510;BME280;5303;53.266;10.410;2023-10-08T02:27:10;101963.00;;;10.30;100.00
10510;BME280;5303;53.266;10.410;2023-10-08T02:29:35;101968.28;;;10.30;100.00
10510;BME280;5303;53.266;10.410;2023-10-08T02:32:01;101964.03;;;10.38;100.00
10510;BME280;5303;53.266;10.410;2023-10-08T02:34:26;101960.47;;;10.36;100.00
10510;BME280;5303;53.266;10.410;2023-10-08T02:36:52;101971.91;;;10.35;100.00
10510;BME280;5303;53.266;10.410;2023-10-08T02:39:17;101964.88;;;10.37;100.00
10510;BME280;5303;53.266;10.410;2023-10-08T02:41:51;101968.41;;;10.38;100.00
10510;BME280;5303;53.266;10.410;2023-10-08T02:44:18;101985.94;;;10.34;100.00
10510;BME280;5303;53.266;10.410;2023-10-08T02:46:44;101984.19;;;10.33;100.00
10510;BME280;5303;53.266;10.410;2023-10-08T02:49:16;101986.88;;;10.38;100.00
10510;BME280;5303;53.266;10.410;2023-10-08T02:51:53;101990.38;;;10.35;100.00
10510;BME280;5303;53.266;10.410;2023-10-08T02:54:19;102000.09;;;10.39;100.00
10510;BME280;5303;53.266;10.410;2023-10-08T02:57:03;102015.03;;;10.39;100.00
10510;BME280;5303;53.266;10.410;2023-10-08T02:59:32;102030.81;;;10.36;100.00
10510;BME280;5303;53.266;10.410;2023-10-08T03:02:08;102035.16;;;10.32;100.00
10510;BME280;5303;53.266;10.410;2023-10-08T03:04:40;102036.94;;;10.33;100.00
10510;BME280;5303;53.266;10.410;2023-10-08T03:07:06;102066.94;;;10.42;100.00
10510;BME280;5303;53.266;10.410;2023-10-08T03:09:46;102054.63;;;10.41;100.00
10510;BME280;5303;53.266;10.410;2023-10-08T03:12:14;102045.78;;;10.37;100.00
10510;BME280;5303;53.266;10.410;2023-10-08T03:14:40;102040.56;;;10.42;100.00
10510;BME280;5303;53.266;10.410;2023-10-08T03:17:15;102035.44;;;10.49;100.00
10510;BME280;5303;53.266;10.410;2023-10-08T03:19:46;102043.47;;;10.55;100.00
10510;BME280;5303;53.266;10.410;2023-10-08T03:22:11;102045.22;;;10.56;100.00
10510;BME280;5303;53.266;10.410;2023-10-08T03:24:37;102045.09;;;10.49;100.00
10510;BME280;5303;53.266;10.410;2023-10-08T03:27:05;102039.03;;;10.53;100.00
10510;BME280;5303;53.266;10.410;2023-10-08T03:29:46;102047.66;;;10.43;100.00
10510;BME280;5303;53.266;10.410;2023-10-08T03:32:13;102052.09;;;10.47;100.00
10510;BME280;5303;53.266;10.410;2023-10-08T03:34:44;102059.97;;;10.44;100.00
10510;BME280;5303;53.266;10.410;2023-10-08T03:37:12;102053.72;;;10.40;100.00
10510;BME280;5303;53.266;10.410;2023-10-08T03:39:45;102068.50;;;10.30;100.00
10510;BME280;5303;53.266;10.410;2023-10-08T03:42:23;102051.81;;;10.31;100.00
10510;BME280;5303;53.266;10.410;2023-10-08T03:44:52;102054.44;;;10.31;100.00
10510;BME280;5303;53.266;10.410;2023-10-08T03:47:19;102068.59;;;10.35;100.00
10510;BME280;5303;53.266;10.410;2023-10-08T03:49:48;102090.50;;;10.31;100.00
10510;BME280;5303;53.266;10.410;2023-10-08T03:52:16;102067.69;;;10.33;100.00
10510;BME280;5303;53.266;10.410;2023-10-08T03:54:41;102073.78;;;10.30;100.00
10510;BME280;5303;53.266;10.410;2023-10-08T03:57:14;102083.41;;;10.28;100.00
10510;BME280;5303;53.266;10.410;2023-10-08T03:59:50;102078.13;;;10.27;100.00
10510;BME280;5303;53.266;10.410;2023-10-08T04:02:20;102093.09;;;10.29;100.00
10510;BME280;5303;53.266;10.410;2023-10-08T04:04:49;102106.28;;;10.29;100.00
10510;BME280;5303;53.266;10.410;2023-10-08T04:07:25;102103.84;;;10.38;100.00
10510;BME280;5303;53.266;10.410;2023-10-08T04:10:01;102083.41;;;10.28;100.00
10510;BME280;5303;53.266;10.410;2023-10-08T04:12:36;102086.00;;;10.25;100.00
10510;BME280;5303;53.266;10.410;2023-10-08T04:15:10;102101.84;;;10.25;100.00
10510;BME280;5303;53.266;10.410;2023-10-08T04:17:40;102096.59;;;10.28;100.00
10510;BME280;5303;53.266;10.410;2023-10-08T04:20:11;102108.91;;;10.28;100.00
10510;BME280;5303;53.266;10.410;2023-10-08T04:23:12;102101.84;;;10.27;100.00
10510;BME280;5303;53.266;10.410;2023-10-08T04:25:46;102093.06;;;10.26;100.00
10510;BME280;5303;53.266;10.410;2023-10-08T04:28:12;102100.06;;;10.24;100.00
10510;BME280;5303;53.266;10.410;2023-10-08T04:30:39;102101.78;;;10.22;100.00
10510;BME280;5303;53.266;10.410;2023-10-08T04:33:07;102097.41;;;10.23;100.00
10510;BME280;5303;53.266;10.410;2023-10-08T04:35:41;102094.66;;;10.21;100.00
10510;BME280;5303;53.266;10.410;2023-10-08T04:38:26;102104.28;;;10.18;100.00
10510;BME280;5303;53.266;10.410;2023-10-08T04:40:53;102101.66;;;10.18;100.00
10510;BME280;5303;53.266;10.410;2023-10-08T04:43:21;102106.03;;;10.17;100.00
10510;BME280;5303;53.266;10.410;2023-10-08T04:48:18;102113.94;;;10.17;100.00
10510;BME280;5303;53.266;10.410;2023-10-08T04:50:47;102127.97;;;10.15;100.00
10510;BME280;5303;53.266;10.410;2023-10-08T04:53:27;102135.00;;;10.14;100.00
10510;BME280;5303;53.266;10.410;2023-10-08T04:55:58;102146.63;;;10.22;100.00
10510;BME280;5303;53.266;10.410;2023-10-08T04:58:27;102156.13;;;10.17;100.00
10510;BME280;5303;53.266;10.410;2023-10-08T05:00:59;102155.31;;;10.21;100.00
10510;BME280;5303;53.266;10.410;2023-10-08T05:03:43;102145.59;;;10.17;100.00
10510;BME280;5303;53.266;10.410;2023-10-08T05:06:19;102162.28;;;10.18;100.00
10510;BME280;5303;53.266;10.410;2023-10-08T05:09:11;102153.56;;;10.20;100.00
10510;BME280;5303;53.266;10.410;2023-10-08T05:11:37;102157.97;;;10.21;100.00
10510;BME280;5303;53.266;10.410;2023-10-08T05:14:31;102151.09;;;10.28;100.00
10510;BME280;5303;53.266;10.410;2023-10-08T05:16:57;102136.16;;;10.28;100.00
10510;BME280;5303;53.266;10.410;2023-10-08T05:19:28;102129.91;;;10.22;100.00
10510;BME280;5303;53.266;10.410;2023-10-08T05:22:05;102131.53;;;10.18;100.00
10510;BME280;5303;53.266;10.410;2023-10-08T05:24:49;102127.94;;;10.13;100.00
10510;BME280;5303;53.266;10.410;2023-10-08T05:27:37;102142.88;;;10.13;100.00
10510;BME280;5303;53.266;10.410;2023-10-08T05:30:06;102148.03;;;10.08;100.00
10510;BME280;5303;53.266;10.410;2023-10-08T05:32:44;102149.78;;;10.07;100.00
10510;BME280;5303;53.266;10.410;2023-10-08T05:35:41;102149.78;;;10.07;100.00
10510;BME280;5303;53.266;10.410;2023-10-08T05:38:10;102164.72;;;10.07;100.00
10510;BME280;5303;53.266;10.410;2023-10-08T05:40:45;102174.22;;;10.00;100.00
10510;BME280;5303;53.266;10.410;2023-10-08T05:43:34;102159.25;;;9.98;100.00
10510;BME280;5303;53.266;10.410;2023-10-08T05:46:13;102165.38;;;9.97;100.00
10510;BME280;5303;53.266;10.410;2023-10-08T05:51:34;102189.09;;;9.95;100.00
10510;BME280;5303;53.266;10.410;2023-10-08T05:54:14;102206.66;;;9.95;100.00
10510;BME280;5303;53.266;10.410;2023-10-08T05:56:53;102204.88;;;9.94;100.00
10510;BME280;5303;53.266;10.410;2023-10-08T05:59:37;102211.91;;;9.95;100.00
10510;BME280;5303;53.266;10.410;2023-10-08T06:02:27;102211.00;;;9.93;100.00
10510;BME280;5303;53.266;10.410;2023-10-08T06:05:13;102208.41;;;9.94;100.00
10510;BME280;5303;53.266;10.410;2023-10-08T06:10:31;102216.19;;;9.90;100.00
10510;BME280;5303;53.266;10.410;2023-10-08T06:13:10;102217.72;;;9.80;100.00
10510;BME280;5303;53.266;10.410;2023-10-08T06:15:49;102216.91;;;9.81;100.00
10510;BME280;5303;53.266;10.410;2023-10-08T06:18:25;102227.38;;;9.79;100.00
10510;BME280;5303;53.266;10.410;2023-10-08T06:20:52;102232.75;;;9.82;100.00
10510;BME280;5303;53.266;10.410;2023-10-08T06:23:20;102239.75;;;9.82;100.00
10510;BME280;5303;53.266;10.410;2023-10-08T06:25:49;102231.72;;;9.77;100.00
10510;BME280;5303;53.266;10.410;2023-10-08T06:28:22;102241.50;;;9.81;100.00
10510;BME280;5303;53.266;10.410;2023-10-08T06:30:55;102243.34;;;9.86;100.00
10510;BME280;5303;53.266;10.410;2023-10-08T06:33:24;102250.44;;;9.90;100.00
10510;BME280;5303;53.266;10.410;2023-10-08T06:35:56;102249.53;;;9.88;100.00
10510;BME280;5303;53.266;10.410;2023-10-08T06:38:31;102249.78;;;9.98;100.00
10510;BME280;5303;53.266;10.410;2023-10-08T06:41:02;102251.78;;;10.10;100.00
10510;BME280;5303;53.266;10.410;2023-10-08T06:43:37;102266.63;;;10.05;100.00
10510;BME280;5303;53.266;10.410;2023-10-08T06:46:03;102262.28;;;10.07;100.00
10510;BME280;5303;53.266;10.410;2023-10-08T06:48:32;102280.69;;;10.05;100.00
10510;BME280;5303;53.266;10.410;2023-10-08T06:50:59;102278.91;;;10.04;100.00
10510;BME280;5303;53.266;10.410;2023-10-08T06:53:32;102273.69;;;10.06;100.00
10510;BME280;5303;53.266;10.410;2023-10-08T06:55:58;102286.03;;;10.08;100.00
10510;BME280;5303;53.266;10.410;2023-10-08T06:58:28;102288.78;;;10.13;100.00
10510;BME280;5303;53.266;10.410;2023-10-08T07:00:54;102302.03;;;10.16;100.00
10510;BME280;5303;53.266;10.410;2023-10-08T07:03:20;102302.06;;;10.18;100.00
10510;BME280;5303;53.266;10.410;2023-10-08T07:05:48;102297.84;;;10.23;100.00
10510;BME280;5303;53.266;10.410;2023-10-08T07:08:22;102316.50;;;10.32;100.00
10510;BME280;5303;53.266;10.410;2023-10-08T07:10:49;102309.56;;;10.37;100.00
10510;BME280;5303;53.266;10.410;2023-10-08T07:13:14;102313.09;;;10.37;100.00
10510;BME280;5303;53.266;10.410;2023-10-08T07:15:43;102315.63;;;10.33;100.00
10510;BME280;5303;53.266;10.410;2023-10-08T07:18:10;102316.66;;;10.39;100.00
10510;BME280;5303;53.266;10.410;2023-10-08T07:20:39;102316.66;;;10.39;100.00
10510;BME280;5303;53.266;10.410;2023-10-08T07:23:06;102311.56;;;10.49;100.00
10510;BME280;5303;53.266;10.410;2023-10-08T07:25:40;102308.16;;;10.53;100.00
10510;BME280;5303;53.266;10.410;2023-10-08T07:28:05;102314.25;;;10.52;100.00
10510;BME280;5303;53.266;10.410;2023-10-08T07:30:37;102307.22;;;10.51;100.00
10510;BME280;5303;53.266;10.410;2023-10-08T07:33:04;102312.41;;;10.46;100.00
10510;BME280;5303;53.266;10.410;2023-10-08T07:35:30;102315.94;;;10.47;100.00
10510;BME280;5303;53.266;10.410;2023-10-08T07:37:55;102326.56;;;10.51;100.00
10510;BME280;5303;53.266;10.410;2023-10-08T07:40:21;102316.00;;;10.51;100.00
10510;BME280;5303;53.266;10.410;2023-10-08T07:42:46;102323.16;;;10.55;100.00
10510;BME280;5303;53.266;10.410;2023-10-08T07:45:17;102318.97;;;10.65;100.00
10510;BME280;5303;53.266;10.410;2023-10-08T07:47:43;102326.91;;;10.66;100.00
10510;BME280;5303;53.266;10.410;2023-10-08T07:50:09;102333.94;;;10.66;100.00
10510;BME280;5303;53.266;10.410;2023-10-08T07:52:37;102325.44;;;10.82;100.00
10510;BME280;5303;53.266;10.410;2023-10-08T07:55:03;102325.59;;;10.88;100.00
10510;BME280;5303;53.266;10.410;2023-10-08T07:57:30;102330.00;;;10.89;100.00
10510;BME280;5303;53.266;10.410;2023-10-08T07:59:56;102321.34;;;10.96;100.00
10510;BME280;5303;53.266;10.410;2023-10-08T08:02:26;102318.69;;;10.95;100.00
10510;BME280;5303;53.266;10.410;2023-10-08T08:04:53;102324.16;;;11.04;100.00
10510;BME280;5303;53.266;10.410;2023-10-08T08:07:21;102319.84;;;11.11;100.00
10510;BME280;5303;53.266;10.410;2023-10-08T08:09:51;102321.94;;;11.27;100.00
10510;BME280;5303;53.266;10.410;2023-10-08T08:12:21;102325.38;;;11.23;100.00
10510;BME280;5303;53.266;10.410;2023-10-08T08:14:51;102321.88;;;11.24;100.00
10510;BME280;5303;53.266;10.410;2023-10-08T08:17:17;102324.56;;;11.27;100.00
10510;BME280;5303;53.266;10.410;2023-10-08T08:19:44;102326.47;;;11.34;100.00
10510;BME280;5303;53.266;10.410;2023-10-08T08:22:13;102325.44;;;11.26;100.00
10510;BME280;5303;53.266;10.410;2023-10-08T08:24:53;102326.50;;;11.36;100.00
10510;BME280;5303;53.266;10.410;2023-10-08T08:27:25;102332.59;;;11.33;100.00
10510;BME280;5303;53.266;10.410;2023-10-08T08:29:57;102343.13;;;11.30;100.00
10510;BME280;5303;53.266;10.410;2023-10-08T08:32:35;102338.94;;;11.43;100.00
10510;BME280;5303;53.266;10.410;2023-10-08T08:35:00;102346.13;;;11.50;100.00
10510;BME280;5303;53.266;10.410;2023-10-08T08:37:26;102342.75;;;11.59;100.00
10510;BME280;5303;53.266;10.410;2023-10-08T08:39:57;102347.19;;;11.61;100.00
10510;BME280;5303;53.266;10.410;2023-10-08T08:42:22;102360.41;;;11.61;100.00
10510;BME280;5303;53.266;10.410;2023-10-08T08:44:53;102363.91;;;11.59;100.00
10510;BME280;5303;53.266;10.410;2023-10-08T08:47:21;102367.47;;;11.62;100.00
10510;BME280;5303;53.266;10.410;2023-10-08T08:49:50;102361.25;;;11.59;100.00
10510;BME280;5303;53.266;10.410;2023-10-08T08:52:18;102370.25;;;11.70;100.00
10510;BME280;5303;53.266;10.410;2023-10-08T08:54:43;102368.53;;;11.72;100.00
10510;BME280;5303;53.266;10.410;2023-10-08T08:57:10;102375.72;;;11.79;100.00
10510;BME280;5303;53.266;10.410;2023-10-08T08:59:52;102373.81;;;11.72;100.00
10510;BME280;5303;53.266;10.410;2023-10-08T09:02:20;102372.38;;;11.89;100.00
10510;BME280;5303;53.266;10.410;2023-10-08T09:04:48;102376.84;;;11.93;100.00
10510;BME280;5303;53.266;10.410;2023-10-08T09:07:14;102376.78;;;11.89;100.00
10510;BME280;5303;53.266;10.410;2023-10-08T09:09:39;102379.44;;;11.90;100.00
10510;BME280;5303;53.266;10.410;2023-10-08T09:12:05;102377.91;;;12.04;100.00
10510;BME280;5303;53.266;10.410;2023-10-08T09:14:31;102375.22;;;12.01;100.00
10510;BME280;5303;53.266;10.410;2023-10-08T09:17:00;102384.00;;;11.99;100.00
10510;BME280;5303;53.266;10.410;2023-10-08T09:19:26;102384.97;;;12.05;100.00
10510;BME280;5303;53.266;10.410;2023-10-08T09:24:33;102386.00;;;12.14;100.00
10510;BME280;5303;53.266;10.410;2023-10-08T09:27:01;102388.81;;;12.26;100.00
10510;BME280;5303;53.266;10.410;2023-10-08T09:29:27;102393.22;;;12.24;100.00
10510;BME280;5303;53.266;10.410;2023-10-08T09:31:55;102391.59;;;12.35;100.00
10510;BME280;5303;53.266;10.410;2023-10-08T09:34:21;102404.06;;;12.42;100.00
10510;BME280;5303;53.266;10.410;2023-10-08T09:36:48;102394.25;;;12.35;100.00
10510;BME280;5303;53.266;10.410;2023-10-08T09:39:15;102385.41;;;12.33;100.00
10510;BME280;5303;53.266;10.410;2023-10-08T09:41:49;102392.63;;;12.43;100.00
10510;BME280;5303;53.266;10.410;2023-10-08T09:44:18;102396.16;;;12.44;100.00
10510;BME280;5303;53.266;10.410;2023-10-08T09:46:47;102394.53;;;12.55;100.00
10510;BME280;5303;53.266;10.410;2023-10-08T09:49:15;102412.28;;;12.60;100.00
10510;BME280;5303;53.266;10.410;2023-10-08T09:51:43;102410.59;;;12.65;100.00
10510;BME280;5303;53.266;10.410;2023-10-08T09:54:17;102421.44;;;12.84;100.00
10510;BME280;5303;53.266;10.410;2023-10-08T09:56:46;102419.63;;;12.80;100.00
10510;BME280;5303;53.266;10.410;2023-10-08T09:59:13;102419.53;;;12.74;100.00
10510;BME280;5303;53.266;10.410;2023-10-08T10:01:41;102425.03;;;12.87;100.00
10510;BME280;5303;53.266;10.410;2023-10-08T10:04:11;102421.41;;;12.81;100.00
10510;BME280;5303;53.266;10.410;2023-10-08T10:06:37;102417.88;;;12.82;100.00
10510;BME280;5303;53.266;10.410;2023-10-08T10:09:04;102418.72;;;12.78;100.00
10510;BME280;5303;53.266;10.410;2023-10-08T10:11:33;102419.75;;;12.89;100.00
10510;BME280;5303;53.266;10.410;2023-10-08T10:13:59;102414.44;;;12.89;100.00
10510;BME280;5303;53.266;10.410;2023-10-08T10:16:25;102413.50;;;12.85;100.00
10510;BME280;5303;53.266;10.410;2023-10-08T10:18:55;102418.81;;;12.85;100.00
10510;BME280;5303;53.266;10.410;2023-10-08T10:21:32;102405.63;;;12.90;100.00
10510;BME280;5303;53.266;10.410;2023-10-08T10:23:58;102410.03;;;12.88;100.00
10510;BME280;5303;53.266;10.410;2023-10-08T10:29:20;102423.47;;;13.06;100.00
10510;BME280;5303;53.266;10.410;2023-10-08T10:31:50;102413.81;;;13.08;100.00
10510;BME280;5303;53.266;10.410;2023-10-08T10:34:21;102413.25;;;13.32;100.00
10510;BME280;5303;53.266;10.410;2023-10-08T10:36:49;102422.75;;;13.18;100.00
10510;BME280;5303;53.266;10.410;2023-10-08T10:39:19;102414.00;;;13.22;100.00
10510;BME280;5303;53.266;10.410;2023-10-08T10:41:59;102421.16;;;13.29;100.00
10510;BME280;5303;53.266;10.410;2023-10-08T10:44:46;102427.41;;;13.37;100.00
10510;BME280;5303;53.266;10.410;2023-10-08T10:47:15;102433.81;;;13.56;100.00
10510;BME280;5303;53.266;10.410;2023-10-08T10:49:41;102431.13;;;13.50;100.00
10510;BME280;5303;53.266;10.410;2023-10-08T10:52:20;102433.69;;;13.45;100.00
10510;BME280;5303;53.266;10.410;2023-10-08T10:55:06;102429.19;;;13.37;100.00
10510;BME280;5303;53.266;10.410;2023-10-08T11:00:10;102425.31;;;13.10;100.00
10510;BME280;5303;53.266;10.410;2023-10-08T11:02:56;102422.66;;;13.10;100.00
10510;BME280;5303;53.266;10.410;2023-10-08T11:05:28;102426.13;;;13.06;100.00
10510;BME280;5303;53.266;10.410;2023-10-08T11:07:57;102412.84;;;13.03;100.00
10510;BME280;5303;53.266;10.410;2023-10-08T11:10:34;102410.19;;;13.00;100.00
10510;BME280;5303;53.266;10.410;2023-10-08T11:13:04;102413.81;;;13.08;100.00
10510;BME280;5303;53.266;10.410;2023-10-08T11:15:30;102404.03;;;13.04;100.00
10510;BME280;5303;53.266;10.410;2023-10-08T11:18:07;102395.19;;;13.02;100.00
10510;BME280;5303;53.266;10.410;2023-10-08T11:20:33;102388.13;;;13.01;100.00
10510;BME280;5303;53.266;10.410;2023-10-08T11:23:04;102381.06;;;13.03;100.00
10510;BME280;5303;53.266;10.410;2023-10-08T11:25:52;102382.19;;;13.20;100.00
10510;BME280;5303;53.266;10.410;2023-10-08T11:28:18;102373.25;;;13.14;100.00
10510;BME280;5303;53.266;10.410;2023-10-08T11:30:43;102366.28;;;13.19;100.00
10510;BME280;5303;53.266;10.410;2023-10-08T11:33:12;102376.00;;;13.21;100.00
10510;BME280;5303;53.266;10.410;2023-10-08T11:36:03;102370.66;;;13.18;100.00
10510;BME280;5303;53.266;10.410;2023-10-08T11:38:39;102368.97;;;13.23;100.00
10510;BME280;5303;53.266;10.410;2023-10-08T11:41:12;102357.59;;;13.35;100.00
10510;BME280;5303;53.266;10.410;2023-10-08T11:43:46;102354.22;;;13.50;100.00
10510;BME280;5303;53.266;10.410;2023-10-08T11:46:12;102365.63;;;13.40;100.00
10510;BME280;5303;53.266;10.410;2023-10-08T11:48:39;102370.09;;;13.48;100.00
10510;BME280;5303;53.266;10.410;2023-10-08T11:51:08;102379.00;;;13.52;100.00
10510;BME280;5303;53.266;10.410;2023-10-08T11:53:37;102372.81;;;13.54;100.00
10510;BME280;5303;53.266;10.410;2023-10-08T11:56:02;102378.13;;;13.53;100.00
10510;BME280;5303;53.266;10.410;2023-10-08T11:58:34;102369.31;;;13.57;100.00
10510;BME280;5303;53.266;10.410;2023-10-08T12:01:02;102373.69;;;13.53;100.00
10510;BME280;5303;53.266;10.410;2023-10-08T12:03:29;102376.34;;;13.52;100.00
10510;BME280;5303;53.266;10.410;2023-10-08T12:05:54;102378.09;;;13.50;100.00
10510;BME280;5303;53.266;10.410;2023-10-08T12:08:24;102382.53;;;13.54;100.00
10510;BME280;5303;53.266;10.410;2023-10-08T12:10:53;102385.22;;;13.57;100.00
10510;BME280;5303;53.266;10.410;2023-10-08T12:13:19;102377.25;;;13.59;100.00
10510;BME280;5303;53.266;10.410;2023-10-08T12:15:53;102381.63;;;13.49;100.00
10510;BME280;5303;53.266;10.410;2023-10-08T12:18:30;102376.16;;;13.37;100.00
10510;BME280;5303;53.266;10.410;2023-10-08T12:20:55;102367.31;;;13.35;100.00
10510;BME280;5303;53.266;10.410;2023-10-08T12:23:21;102377.06;;;13.37;100.00
10510;BME280;5303;53.266;10.410;2023-10-08T12:25:55;102388.59;;;13.41;100.00
10510;BME280;5303;53.266;10.410;2023-10-08T12:28:25;102381.72;;;13.61;100.00
10510;BME280;5303;53.266;10.410;2023-10-08T12:30:54;102389.06;;;13.90;100.00
10510;BME280;5303;53.266;10.410;2023-10-08T12:33:21;102384.75;;;14.07;100.00
10510;BME280;5303;53.266;10.410;2023-10-08T12:35:49;102380.47;;;14.21;100.00
10510;BME280;5303;53.266;10.410;2023-10-08T12:38:18;102379.53;;;14.16;100.00
10510;BME280;5303;53.266;10.410;2023-10-08T12:40:47;102361.91;;;14.23;100.00
10510;BME280;5303;53.266;10.410;2023-10-08T12:43:16;102365.38;;;14.17;100.00
10510;BME280;5303;53.266;10.410;2023-10-08T12:45:54;102352.94;;;14.08;100.00
10510;BME280;5303;53.266;10.410;2023-10-08T12:48:21;102358.22;;;14.05;100.00
10510;BME280;5303;53.266;10.410;2023-10-08T12:50:47;102352.16;;;14.26;100.00
10510;BME280;5303;53.266;10.410;2023-10-08T12:53:22;102345.03;;;14.16;100.00
10510;BME280;5303;53.266;10.410;2023-10-08T12:55:52;102346.72;;;14.02;100.00
10510;BME280;5303;53.266;10.410;2023-10-08T12:58:21;102349.28;;;13.93;100.00
10510;BME280;5303;53.266;10.410;2023-10-08T13:00:51;102351.09;;;13.98;100.00
10510;BME280;5303;53.266;10.410;2023-10-08T13:03:22;102360.81;;;13.96;100.00
10510;BME280;5303;53.266;10.410;2023-10-08T13:05:49;102366.09;;;13.95;100.00
10510;BME280;5303;53.266;10.410;2023-10-08T13:08:18;102372.31;;;13.97;100.00
10510;BME280;5303;53.266;10.410;2023-10-08T13:10:45;102370.50;;;13.93;100.00
10510;BME280;5303;53.266;10.410;2023-10-08T13:13:10;102359.00;;;13.91;100.00
10510;BME280;5303;53.266;10.410;2023-10-08T13:15:37;102362.53;;;13.91;100.00